createdAt,value
2023-02-19T00:00:52.042Z,1.1
2023-02-19T00:02:00.743Z,1.3
2023-02-19T00:03:09.345Z,1.1
2023-02-19T00:04:18.146Z,1.1
2023-02-19T00:05:25.757Z,1.1
2023-02-19T00:06:35.419Z,1.1
2023-02-19T00:07:44.074Z,1.2
2023-02-19T00:08:52.742Z,1.3
2023-02-19T00:10:01.419Z,1.3
2023-02-19T00:11:10.341Z,1.4
2023-02-19T00:12:18.730Z,1.5
2023-02-19T00:13:28.396Z,1.5
2023-02-19T00:14:36.076Z,1.6
2023-02-19T00:15:45.755Z,1.9
2023-02-19T00:16:55.517Z,2.2
2023-02-19T00:18:03.051Z,2
2023-02-19T00:19:12.697Z,2.9
2023-02-19T00:20:20.377Z,2.2
2023-02-19T00:21:30.048Z,2.1
2023-02-19T00:22:39.694Z,2.8
2023-02-19T00:23:47.353Z,2.4
2023-02-19T00:24:57.067Z,2.9
2023-02-19T00:26:17.454Z,2.8
2023-02-19T00:27:15.334Z,2.7
2023-02-19T00:28:25.983Z,2.7
2023-02-19T00:29:34.680Z,2.6
2023-02-19T00:30:43.384Z,2.6
2023-02-19T00:31:53.090Z,2.5
2023-02-19T00:33:02.684Z,2.6
2023-02-19T00:34:12.316Z,2.2
2023-02-19T00:35:21.000Z,2.6
2023-02-19T00:36:28.651Z,2
2023-02-19T00:37:38.359Z,1.5
2023-02-19T00:38:46.014Z,2
2023-02-19T00:39:54.668Z,1.8
2023-02-19T00:41:04.343Z,1.9
2023-02-19T00:42:13.003Z,1.6
2023-02-19T00:43:22.660Z,1.6
2023-02-19T00:44:31.307Z,1.5
2023-02-19T00:45:38.984Z,0.9
2023-02-19T00:46:48.653Z,0.8
2023-02-19T00:47:57.311Z,1.3
2023-02-19T00:49:07.005Z,1.3
2023-02-19T00:50:16.670Z,1.6
2023-02-19T00:51:24.317Z,1.5
2023-02-19T00:52:34.017Z,1.3
2023-02-19T00:53:42.673Z,1.7
2023-02-19T00:54:51.345Z,1.4
2023-02-19T00:56:01.041Z,1.6
2023-02-19T00:57:08.676Z,1.7
2023-02-19T00:58:18.350Z,1.5
2023-02-19T00:59:27.998Z,1.5
2023-02-19T01:00:35.659Z,1.6
2023-02-19T01:01:45.397Z,1.7
2023-02-19T01:02:54.997Z,1.5
2023-02-19T01:04:04.285Z,1.9
2023-02-19T01:05:13.385Z,1.6
2023-02-19T01:06:21.042Z,1.4
2023-02-19T01:07:29.697Z,1.5
2023-02-19T01:08:39.355Z,2.1
2023-02-19T01:09:47.011Z,1.4
2023-02-19T01:10:55.763Z,2.1
2023-02-19T01:12:04.413Z,1.4
2023-02-19T01:13:14.077Z,1.5
2023-02-19T01:14:22.727Z,1.3
2023-02-19T01:15:30.390Z,1.4
2023-02-19T01:16:39.053Z,1.7
2023-02-19T01:17:48.692Z,1.2
2023-02-19T01:18:58.329Z,1.2
2023-02-19T01:20:08.058Z,1.3
2023-02-19T01:21:17.755Z,1
2023-02-19T01:22:25.368Z,1
2023-02-19T01:23:35.025Z,1.1
2023-02-19T01:24:43.696Z,0.9
2023-02-19T01:25:52.363Z,1.3
2023-02-19T01:27:02.025Z,0.9
2023-02-19T01:28:10.674Z,0.9
2023-02-19T01:29:20.321Z,1
2023-02-19T01:30:30.029Z,0.8
2023-02-19T01:31:39.698Z,1
2023-02-19T01:32:49.319Z,0.9
2023-02-19T01:33:58.978Z,1.1
2023-02-19T01:35:07.616Z,0.9
2023-02-19T01:36:17.285Z,1
2023-02-19T01:37:26.982Z,0.7
2023-02-19T01:38:35.596Z,0.6
2023-02-19T01:39:45.253Z,0.8
2023-02-19T01:40:53.952Z,0.6
2023-02-19T01:42:02.625Z,0.8
2023-02-19T01:43:12.263Z,0.6
2023-02-19T01:44:19.905Z,0.6
2023-02-19T01:45:29.590Z,1.3
2023-02-19T01:46:38.347Z,0.6
2023-02-19T01:47:46.914Z,0.6
2023-02-19T01:48:56.556Z,0.4
2023-02-19T01:50:05.205Z,0.7
2023-02-19T01:51:14.889Z,0.5
2023-02-19T01:52:23.530Z,0.6
2023-02-19T01:53:33.209Z,0.7
2023-02-19T01:54:42.864Z,0.6
2023-02-19T01:55:51.563Z,0.9
2023-02-19T01:56:59.197Z,0.7
2023-02-19T01:58:08.866Z,0.6
2023-02-19T01:59:16.537Z,0.5
2023-02-19T02:00:26.293Z,0.5
2023-02-19T02:01:35.936Z,1
2023-02-19T02:02:44.529Z,0.7
2023-02-19T02:03:54.183Z,1
2023-02-19T02:05:00.872Z,0.6
2023-02-19T02:06:10.564Z,0.7
2023-02-19T02:07:18.214Z,0.5
2023-02-19T02:08:26.870Z,0.7
2023-02-19T02:09:36.557Z,0.6
2023-02-19T02:10:44.190Z,0.8
2023-02-19T02:11:53.878Z,0.7
2023-02-19T02:13:03.521Z,0.9
2023-02-19T02:14:11.169Z,0.7
2023-02-19T02:15:20.834Z,0.7
2023-02-19T02:16:30.564Z,0.8
2023-02-19T02:17:39.175Z,0.8
2023-02-19T02:18:48.826Z,0.7
2023-02-19T02:19:57.515Z,0.7
2023-02-19T02:21:07.333Z,0.8
2023-02-19T02:22:15.836Z,0.5
2023-02-19T02:23:23.482Z,0.9
2023-02-19T02:24:33.152Z,0.8
2023-02-19T02:25:42.832Z,0.9
2023-02-19T02:26:51.480Z,0.9
2023-02-19T02:28:01.135Z,0.5
2023-02-19T02:29:08.777Z,0.6
2023-02-19T02:30:17.542Z,0.6
2023-02-19T02:31:26.236Z,0.6
2023-02-19T02:32:33.851Z,0.6
2023-02-19T02:33:43.519Z,0.5
2023-02-19T02:34:51.176Z,0.9
2023-02-19T02:35:59.828Z,1
2023-02-19T02:37:09.513Z,1
2023-02-19T02:38:18.163Z,0.8
2023-02-19T02:39:27.819Z,0.6
2023-02-19T02:40:37.498Z,0.6
2023-02-19T02:41:46.149Z,0.6
2023-02-19T02:42:55.806Z,0.6
2023-02-19T02:44:04.459Z,0.7
2023-02-19T02:45:13.122Z,0.8
2023-02-19T02:46:22.807Z,0.6
2023-02-19T02:47:30.449Z,0.9
2023-02-19T02:48:40.122Z,1.2
2023-02-19T02:49:48.766Z,0.9
2023-02-19T02:50:57.416Z,0.8
2023-02-19T02:52:07.136Z,0.9
2023-02-19T02:53:15.790Z,1
2023-02-19T02:54:24.442Z,0.6
2023-02-19T02:55:34.091Z,0.5
2023-02-19T02:56:43.773Z,0.4
2023-02-19T02:57:53.439Z,0.7
2023-02-19T02:59:03.085Z,0.7
2023-02-19T03:00:10.782Z,0.8
2023-02-19T03:01:20.468Z,0.9
2023-02-19T03:02:29.153Z,1.4
2023-02-19T03:03:37.755Z,1.8
2023-02-19T03:04:47.426Z,2
2023-02-19T03:05:55.087Z,1.6
2023-02-19T03:07:04.766Z,1.1
2023-02-19T03:08:13.404Z,1.1
2023-02-19T03:09:22.040Z,1.1
2023-02-19T03:10:31.690Z,1.1
2023-02-19T03:11:41.363Z,1.2
2023-02-19T03:12:50.013Z,1.2
2023-02-19T03:13:59.686Z,1.2
2023-02-19T03:15:07.332Z,1.1
2023-02-19T03:16:17.032Z,1.2
2023-02-19T03:17:26.777Z,1
2023-02-19T03:18:36.434Z,1
2023-02-19T03:19:46.097Z,1.3
2023-02-19T03:20:54.747Z,1.3
2023-02-19T03:22:04.436Z,1.1
2023-02-19T03:23:14.107Z,1.4
2023-02-19T03:24:20.759Z,1.6
2023-02-19T03:25:30.409Z,1.6
2023-02-19T03:26:40.080Z,1.4
2023-02-19T03:27:47.726Z,1.3
2023-02-19T03:28:57.446Z,1.3
2023-02-19T03:30:06.129Z,1.1
2023-02-19T03:31:15.852Z,1.4
2023-02-19T03:32:25.511Z,1.3
2023-02-19T03:33:34.177Z,4
2023-02-19T03:34:43.850Z,2.4
2023-02-19T03:35:53.536Z,2.2
2023-02-19T03:37:02.229Z,1.7
2023-02-19T03:38:10.886Z,1.8
2023-02-19T03:39:18.518Z,1.9
2023-02-19T03:40:27.176Z,2.2
2023-02-19T03:41:36.823Z,2.2
2023-02-19T03:42:44.504Z,2.2
2023-02-19T03:43:54.142Z,2.6
2023-02-19T03:45:02.796Z,2
2023-02-19T03:46:10.497Z,2.1
2023-02-19T03:47:20.123Z,2
2023-02-19T03:48:27.747Z,2.2
2023-02-19T03:49:37.409Z,1.8
2023-02-19T03:50:47.075Z,2.5
2023-02-19T03:51:55.719Z,2
2023-02-19T03:53:06.388Z,1.9
2023-02-19T03:54:15.030Z,1.5
2023-02-19T03:55:22.679Z,1.8
2023-02-19T03:56:32.339Z,1.6
2023-02-19T03:57:40.009Z,1.8
2023-02-19T03:58:49.676Z,1.5
2023-02-19T03:59:59.340Z,1.4
2023-02-19T04:01:09.203Z,1.1
2023-02-19T04:02:18.695Z,0.8
2023-02-19T04:03:28.314Z,1
2023-02-19T04:04:38.022Z,1
2023-02-19T04:05:47.640Z,0.8
2023-02-19T04:06:56.283Z,0.6
2023-02-19T04:08:05.977Z,0.7
2023-02-19T04:09:15.636Z,1.2
2023-02-19T04:10:24.298Z,0.6
2023-02-19T04:11:33.945Z,0.8
2023-02-19T04:12:41.620Z,0.7
2023-02-19T04:13:51.276Z,0.5
2023-02-19T04:14:59.962Z,1.3
2023-02-19T04:16:07.613Z,1.1
2023-02-19T04:17:17.264Z,1.1
2023-02-19T04:18:25.924Z,0.7
2023-02-19T04:19:34.576Z,0.8
2023-02-19T04:20:43.222Z,0.7
2023-02-19T04:21:51.863Z,0.7
2023-02-19T04:23:01.556Z,1.5
2023-02-19T04:24:10.241Z,1
2023-02-19T04:25:19.898Z,1
2023-02-19T04:26:28.560Z,1.5
2023-02-19T04:27:36.210Z,0.8
2023-02-19T04:28:44.854Z,0.5
2023-02-19T04:29:54.509Z,0.8
2023-02-19T04:31:01.155Z,0.9
2023-02-19T04:32:10.798Z,0.7
2023-02-19T04:33:20.470Z,0.7
2023-02-19T04:34:28.126Z,0.4
2023-02-19T04:35:37.780Z,0.4
2023-02-19T04:36:46.427Z,0.3
2023-02-19T04:37:55.136Z,0.5
2023-02-19T04:39:04.782Z,0.3
2023-02-19T04:40:12.448Z,0.4
2023-02-19T04:41:22.088Z,0.4
2023-02-19T04:42:30.760Z,0.7
2023-02-19T04:43:39.408Z,0.4
2023-02-19T04:44:48.062Z,0.7
2023-02-19T04:45:56.716Z,0.6
2023-02-19T04:47:05.365Z,0.6
2023-02-19T04:48:15.065Z,0.3
2023-02-19T04:49:22.708Z,0.4
2023-02-19T04:50:32.401Z,0.4
2023-02-19T04:51:42.156Z,0.5
2023-02-19T04:52:49.813Z,0.5
2023-02-19T04:53:59.480Z,0.4
2023-02-19T04:55:08.153Z,0.6
2023-02-19T04:56:17.808Z,0.4
2023-02-19T04:57:27.481Z,0.3
2023-02-19T04:58:35.220Z,0.7
2023-02-19T04:59:44.894Z,0.4
2023-02-19T05:00:53.568Z,0.4
2023-02-19T05:02:02.256Z,0.7
2023-02-19T05:03:11.971Z,0.8
2023-02-19T05:04:20.631Z,0.6
2023-02-19T05:05:30.281Z,0.4
2023-02-19T05:06:39.952Z,0.6
2023-02-19T05:07:49.660Z,0.6
2023-02-19T05:08:59.313Z,0.6
2023-02-19T05:10:07.956Z,0.5
2023-02-19T05:11:16.613Z,0.3
2023-02-19T05:12:26.252Z,0.3
2023-02-19T05:13:35.032Z,0.5
2023-02-19T05:14:43.571Z,0.3
2023-02-19T05:15:53.237Z,0.5
2023-02-19T05:17:02.868Z,0.5
2023-02-19T05:18:12.549Z,0.6
2023-02-19T05:19:21.222Z,0.7
2023-02-19T05:20:29.865Z,0.7
2023-02-19T05:21:39.505Z,1
2023-02-19T05:22:48.155Z,0.9
2023-02-19T05:23:56.839Z,0.8
2023-02-19T05:25:06.496Z,0.7
2023-02-19T05:26:14.162Z,0.9
2023-02-19T05:27:23.790Z,0.6
2023-02-19T05:28:32.558Z,0.6
2023-02-19T05:29:40.192Z,0.7
2023-02-19T05:30:49.978Z,0.9
2023-02-19T05:31:57.516Z,1.1
2023-02-19T05:33:07.124Z,1
2023-02-19T05:34:16.794Z,1.2
2023-02-19T05:35:26.439Z,1.2
2023-02-19T05:36:36.098Z,0.8
2023-02-19T05:37:45.736Z,0.8
2023-02-19T05:38:53.386Z,0.7
2023-02-19T05:40:03.027Z,1
2023-02-19T05:41:10.998Z,0.7
2023-02-19T05:42:19.398Z,0.9
2023-02-19T05:43:29.089Z,1.2
2023-02-19T05:44:37.751Z,1.4
2023-02-19T05:45:46.411Z,1.2
2023-02-19T05:46:55.055Z,1
2023-02-19T05:48:03.701Z,1.3
2023-02-19T05:49:13.396Z,0.9
2023-02-19T05:50:23.049Z,1.1
2023-02-19T05:51:31.720Z,0.9
2023-02-19T05:52:41.381Z,0.7
2023-02-19T05:53:51.062Z,1.1
2023-02-19T05:55:00.734Z,0.9
2023-02-19T05:56:10.380Z,0.7
2023-02-19T05:57:19.028Z,1
2023-02-19T05:58:28.691Z,0.9
2023-02-19T05:59:36.360Z,0.8
2023-02-19T06:00:46.022Z,1
2023-02-19T06:01:55.670Z,1
2023-02-19T06:03:04.334Z,1.2
2023-02-19T06:04:14.039Z,1
2023-02-19T06:05:22.639Z,0.8
2023-02-19T06:06:32.291Z,0.8
2023-02-19T06:07:40.956Z,0.6
2023-02-19T06:08:48.622Z,0.8
2023-02-19T06:09:58.289Z,0.7
2023-02-19T06:11:07.064Z,0.6
2023-02-19T06:12:15.693Z,0.5
2023-02-19T06:13:25.349Z,0.6
2023-02-19T06:14:35.032Z,0.6
2023-02-19T06:15:44.687Z,0.6
2023-02-19T06:16:53.328Z,0.5
2023-02-19T06:18:00.984Z,0.5
2023-02-19T06:19:09.668Z,0.5
2023-02-19T06:20:18.303Z,0.4
2023-02-19T06:21:27.973Z,0.3
2023-02-19T06:22:37.637Z,0.3
2023-02-19T06:23:45.289Z,0.4
2023-02-19T06:24:54.973Z,0.4
2023-02-19T06:26:04.637Z,0.2
2023-02-19T06:27:12.287Z,0.5
2023-02-19T06:28:21.944Z,0.2
2023-02-19T06:29:29.610Z,0.3
2023-02-19T06:30:39.265Z,0.4
2023-02-19T06:31:48.996Z,0.6
2023-02-19T06:32:56.579Z,0.4
2023-02-19T06:34:06.279Z,0.3
2023-02-19T06:35:15.939Z,0.5
2023-02-19T06:36:23.594Z,0.5
2023-02-19T06:37:33.268Z,0.6
2023-02-19T06:38:41.942Z,0.6
2023-02-19T06:39:50.624Z,0.7
2023-02-19T06:41:00.322Z,0.5
2023-02-19T06:42:08.971Z,0.5
2023-02-19T06:43:18.634Z,0.7
2023-02-19T06:44:27.310Z,0.7
2023-02-19T06:45:35.986Z,0.7
2023-02-19T06:46:45.679Z,1
2023-02-19T06:47:55.295Z,0.8
2023-02-19T06:49:04.996Z,0.8
2023-02-19T06:50:14.640Z,0.7
2023-02-19T06:51:23.288Z,0.8
2023-02-19T06:52:31.949Z,0.8
2023-02-19T06:53:40.593Z,0.9
2023-02-19T06:54:49.276Z,0.8
2023-02-19T06:55:59.028Z,0.8
2023-02-19T06:57:06.694Z,0.8
2023-02-19T06:58:16.353Z,1
2023-02-19T06:59:26.058Z,1.1
2023-02-19T07:00:34.760Z,1
2023-02-19T07:01:44.376Z,1.2
2023-02-19T07:02:54.025Z,1.2
2023-02-19T07:04:02.685Z,1.2
2023-02-19T07:05:12.344Z,1.1
2023-02-19T07:06:22.024Z,0.9
2023-02-19T07:07:31.654Z,0.9
2023-02-19T07:08:41.314Z,0.9
2023-02-19T07:09:48.996Z,0.9
2023-02-19T07:10:58.652Z,0.7
2023-02-19T07:12:07.299Z,0.9
2023-02-19T07:13:15.034Z,0.6
2023-02-19T07:14:23.757Z,0.4
2023-02-19T07:15:31.398Z,0.5
2023-02-19T07:16:41.105Z,0.4
2023-02-19T07:17:49.700Z,0.3
2023-02-19T07:18:59.365Z,0.4
2023-02-19T07:20:09.029Z,0.5
2023-02-19T07:21:18.675Z,0.4
2023-02-19T07:22:26.322Z,0.7
2023-02-19T07:23:35.998Z,0.5
2023-02-19T07:24:46.900Z,0.7
2023-02-19T07:25:55.371Z,0.8
2023-02-19T07:27:05.028Z,0.7
2023-02-19T07:28:12.679Z,0.9
2023-02-19T07:29:22.341Z,0.9
2023-02-19T07:30:31.055Z,0.7
2023-02-19T07:31:39.745Z,0.8
2023-02-19T07:32:49.362Z,0.8
2023-02-19T07:33:58.046Z,1.1
2023-02-19T07:35:06.722Z,0.9
2023-02-19T07:36:16.373Z,1.1
2023-02-19T07:37:25.025Z,0.7
2023-02-19T07:38:34.691Z,0.8
2023-02-19T07:39:43.329Z,0.8
2023-02-19T07:40:53.012Z,0.8
2023-02-19T07:42:02.684Z,0.8
2023-02-19T07:43:10.331Z,0.9
2023-02-19T07:44:19.986Z,0.8
2023-02-19T07:45:29.800Z,0.6
2023-02-19T07:46:39.404Z,0.6
2023-02-19T07:47:49.061Z,0.9
2023-02-19T07:48:56.759Z,0.7
2023-02-19T07:50:05.456Z,0.7
2023-02-19T07:51:15.105Z,0.8
2023-02-19T07:52:23.757Z,0.5
2023-02-19T07:53:32.417Z,0.7
2023-02-19T07:54:42.110Z,0.6
2023-02-19T07:55:50.777Z,0.7
2023-02-19T07:57:00.471Z,0.6
2023-02-19T07:58:09.082Z,0.6
2023-02-19T07:59:18.745Z,0.8
2023-02-19T08:00:27.453Z,0.7
2023-02-19T08:01:35.084Z,1.6
2023-02-19T08:02:43.761Z,0.8
2023-02-19T08:03:53.510Z,0.7
2023-02-19T08:05:02.212Z,0.7
2023-02-19T08:06:11.889Z,0.7
2023-02-19T08:07:21.565Z,0.6
2023-02-19T08:08:31.255Z,0.8
2023-02-19T08:09:39.987Z,0.7
2023-02-19T08:10:47.674Z,0.8
2023-02-19T08:11:57.319Z,0.7
2023-02-19T08:13:06.004Z,0.8
2023-02-19T08:14:14.662Z,0.6
2023-02-19T08:15:24.365Z,0.6
2023-02-19T08:16:42.804Z,0.7
2023-02-19T08:17:44.686Z,0.7
2023-02-19T08:18:53.339Z,0.6
2023-02-19T08:20:01.013Z,0.7
2023-02-19T08:21:09.975Z,0.6
2023-02-19T08:22:17.364Z,0.9
2023-02-19T08:23:27.023Z,0.6
2023-02-19T08:24:36.686Z,0.5
2023-02-19T08:25:46.366Z,0.5
2023-02-19T08:26:56.030Z,0.6
2023-02-19T08:28:04.667Z,0.7
2023-02-19T08:29:12.346Z,0.7
2023-02-19T08:30:22.130Z,0.4
2023-02-19T08:31:30.841Z,0.3
2023-02-19T08:32:39.463Z,0.4
2023-02-19T08:33:49.133Z,0.6
2023-02-19T08:34:56.795Z,0.3
2023-02-19T08:36:06.509Z,0.6
2023-02-19T08:37:16.161Z,0.4
2023-02-19T08:38:24.822Z,0.6
2023-02-19T08:39:34.487Z,0.4
2023-02-19T08:40:43.201Z,0.7
2023-02-19T08:41:52.888Z,0.5
2023-02-19T08:43:02.552Z,0.6
2023-02-19T08:44:11.236Z,0.5
2023-02-19T08:45:20.901Z,0.5
2023-02-19T08:46:29.652Z,0.7
2023-02-19T08:47:38.355Z,0.6
2023-02-19T08:48:48.044Z,0.8
2023-02-19T08:49:55.688Z,0.8
2023-02-19T08:51:05.395Z,0.8
2023-02-19T08:52:15.047Z,0.6
2023-02-19T08:53:22.704Z,0.6
2023-02-19T08:54:32.448Z,0.9
2023-02-19T08:55:39.996Z,0.6
2023-02-19T08:56:48.675Z,0.8
2023-02-19T08:57:58.328Z,0.9
2023-02-19T08:59:06.974Z,0.7
2023-02-19T09:00:15.630Z,0.7
2023-02-19T09:01:25.393Z,0.7
2023-02-19T09:02:33.045Z,0.8
2023-02-19T09:03:41.697Z,0.9
2023-02-19T09:04:48.375Z,0.9
2023-02-19T09:05:57.037Z,0.6
2023-02-19T09:07:06.727Z,0.8
2023-02-19T09:08:14.374Z,0.6
2023-02-19T09:09:23.070Z,0.6
2023-02-19T09:10:32.780Z,0.6
2023-02-19T09:11:40.496Z,0.5
2023-02-19T09:12:49.186Z,0.5
2023-02-19T09:13:57.853Z,0.8
2023-02-19T09:15:06.514Z,0.5
2023-02-19T09:16:17.236Z,0.7
2023-02-19T09:17:25.917Z,0.7
2023-02-19T09:18:34.588Z,0.8
2023-02-19T09:19:44.258Z,0.7
2023-02-19T09:20:52.935Z,0.6
2023-02-19T09:22:02.618Z,0.8
2023-02-19T09:23:11.299Z,0.7
2023-02-19T09:24:18.976Z,0.7
2023-02-19T09:25:28.656Z,0.7
2023-02-19T09:26:38.772Z,0.7
2023-02-19T09:27:47.088Z,0.5
2023-02-19T09:28:56.748Z,0.5
2023-02-19T09:30:05.485Z,0.6
2023-02-19T09:31:15.566Z,0.5
2023-02-19T09:32:24.797Z,0.5
2023-02-19T09:33:32.452Z,0.4
2023-02-19T09:34:42.118Z,0.7
2023-02-19T09:35:50.787Z,0.4
2023-02-19T09:36:59.474Z,0.6
2023-02-19T09:38:09.132Z,0.5
2023-02-19T09:39:16.819Z,0.6
2023-02-19T09:40:26.493Z,0.5
2023-02-19T09:41:35.168Z,0.4
2023-02-19T09:42:44.836Z,0.4
2023-02-19T09:43:56.177Z,0.7
2023-02-19T09:45:04.839Z,0.6
2023-02-19T09:46:13.530Z,0.5
2023-02-19T09:47:23.200Z,0.7
2023-02-19T09:48:30.861Z,0.5
2023-02-19T09:49:40.530Z,0.4
2023-02-19T09:50:50.218Z,0.3
2023-02-19T09:51:58.900Z,0.3
2023-02-19T09:53:08.557Z,0.4
2023-02-19T09:54:17.205Z,0.4
2023-02-19T09:55:26.878Z,0.3
2023-02-19T09:56:35.592Z,0.4
2023-02-19T09:57:44.323Z,0.4
2023-02-19T09:58:53.999Z,0.5
2023-02-19T10:00:02.678Z,0.6
2023-02-19T10:01:12.769Z,0.6
2023-02-19T10:02:22.144Z,0.5
2023-02-19T10:03:31.849Z,0.5
2023-02-19T10:04:41.500Z,0.5
2023-02-19T10:05:50.162Z,0.4
2023-02-19T10:06:58.838Z,0.6
2023-02-19T10:08:08.529Z,0.7
2023-02-19T10:09:16.207Z,0.5
2023-02-19T10:10:25.873Z,0.4
2023-02-19T10:11:35.580Z,0.5
2023-02-19T10:12:43.245Z,0.6
2023-02-19T10:13:52.923Z,0.8
2023-02-19T10:15:00.576Z,0.6
2023-02-19T10:16:10.298Z,0.4
2023-02-19T10:17:19.900Z,0.4
2023-02-19T10:18:29.569Z,0.4
2023-02-19T10:19:39.235Z,0.7
2023-02-19T10:20:49.003Z,0.4
2023-02-19T10:21:57.677Z,0.5
2023-02-19T10:23:07.332Z,0.4
2023-02-19T10:24:14.978Z,0.5
2023-02-19T10:25:23.638Z,0.4
2023-02-19T10:26:33.280Z,0.5
2023-02-19T10:27:41.977Z,0.4
2023-02-19T10:28:51.645Z,0.3
2023-02-19T10:30:00.508Z,0.4
2023-02-19T10:31:07.989Z,0.2
2023-02-19T10:32:17.656Z,0.5
2023-02-19T10:33:26.304Z,0.4
2023-02-19T10:34:36.043Z,0.7
2023-02-19T10:35:45.686Z,0.6
2023-02-19T10:36:55.348Z,0.3
2023-02-19T10:38:05.030Z,0.3
2023-02-19T10:39:14.760Z,0.4
2023-02-19T10:40:22.446Z,0.3
2023-02-19T10:41:32.093Z,0.2
2023-02-19T10:42:40.796Z,0.2
2023-02-19T10:43:50.483Z,0.3
2023-02-19T10:45:00.140Z,0.4
2023-02-19T10:46:08.825Z,0.4
2023-02-19T10:47:18.511Z,0.8
2023-02-19T10:48:27.151Z,0.3
2023-02-19T10:49:36.810Z,0.3
2023-02-19T10:50:46.508Z,0.4
2023-02-19T10:51:54.148Z,0.2
2023-02-19T10:53:01.814Z,0.2
2023-02-19T10:54:11.494Z,0.6
2023-02-19T10:55:19.175Z,0.2
2023-02-19T10:56:28.868Z,0.4
2023-02-19T10:57:37.525Z,0.6
2023-02-19T10:58:46.209Z,0.5
2023-02-19T10:59:55.870Z,0.4
2023-02-19T11:01:05.356Z,0.4
2023-02-19T11:02:14.190Z,0.7
2023-02-19T11:03:23.873Z,0.6
2023-02-19T11:04:32.553Z,0.4
2023-02-19T11:05:42.196Z,0.9
2023-02-19T11:06:50.975Z,0.4
2023-02-19T11:07:58.760Z,0.4
2023-02-19T11:09:08.428Z,0.4
2023-02-19T11:10:16.143Z,0.3
2023-02-19T11:11:25.807Z,0.4
2023-02-19T11:12:35.481Z,0.6
2023-02-19T11:13:45.157Z,0.6
2023-02-19T11:14:54.951Z,0.5
2023-02-19T11:16:03.623Z,0.3
2023-02-19T11:17:12.276Z,0.4
2023-02-19T11:18:22.005Z,0.4
2023-02-19T11:19:29.658Z,0.4
2023-02-19T11:20:39.344Z,0.4
2023-02-19T11:21:48.992Z,0.4
2023-02-19T11:22:56.723Z,0.5
2023-02-19T11:24:06.384Z,0.4
2023-02-19T11:25:15.062Z,0.8
2023-02-19T11:26:22.720Z,0.3
2023-02-19T11:27:32.488Z,0.4
2023-02-19T11:28:41.184Z,0.3
2023-02-19T11:29:49.846Z,0.3
2023-02-19T11:30:59.540Z,0.4
2023-02-19T11:32:08.299Z,0.3
2023-02-19T11:33:17.866Z,0.3
2023-02-19T11:34:26.562Z,0.3
2023-02-19T11:35:35.167Z,0.3
2023-02-19T11:36:44.894Z,0.3
2023-02-19T11:37:53.809Z,0.4
2023-02-19T11:39:02.473Z,0.3
2023-02-19T11:40:12.129Z,0.4
2023-02-19T11:41:19.794Z,0.3
2023-02-19T11:42:29.739Z,0.4
2023-02-19T11:43:38.196Z,0.4
2023-02-19T11:44:45.843Z,0.4
2023-02-19T11:45:55.518Z,0.5
2023-02-19T11:47:03.178Z,0.3
2023-02-19T11:48:11.853Z,0.3
2023-02-19T11:49:21.547Z,0.3
2023-02-19T11:50:31.320Z,0.2
2023-02-19T11:51:41.008Z,0.2
2023-02-19T11:52:50.657Z,0.4
2023-02-19T11:54:00.351Z,0.4
2023-02-19T11:55:10.044Z,0.4
2023-02-19T11:56:18.761Z,0.2
2023-02-19T11:57:35.511Z,0.3
2023-02-19T11:58:45.201Z,0.5
2023-02-19T11:59:52.852Z,0.3
2023-02-19T12:01:02.538Z,0.4
2023-02-19T12:02:11.253Z,0.4
2023-02-19T12:03:18.943Z,0.3
2023-02-19T12:04:28.661Z,0.2
2023-02-19T12:05:38.329Z,0.3
2023-02-19T12:06:47.059Z,0.4
2023-02-19T12:07:56.784Z,0.4
2023-02-19T12:09:05.489Z,0.4
2023-02-19T12:10:15.197Z,0.5
2023-02-19T12:11:24.974Z,0.6
2023-02-19T12:12:32.686Z,0.5
2023-02-19T12:13:42.429Z,0.4
2023-02-19T12:14:51.222Z,0.3
2023-02-19T12:15:59.946Z,0.4
2023-02-19T12:17:09.703Z,0.5
2023-02-19T12:18:17.364Z,0.4
2023-02-19T12:19:27.112Z,0.4
2023-02-19T12:20:36.790Z,0.4
2023-02-19T12:21:46.494Z,0.5
2023-02-19T12:22:56.223Z,0.5
2023-02-19T12:24:04.054Z,0.4
2023-02-19T12:25:12.742Z,0.4
2023-02-19T12:26:21.437Z,0.2
2023-02-19T12:27:30.189Z,0.4
2023-02-19T12:28:39.928Z,0.5
2023-02-19T12:29:48.640Z,0.4
2023-02-19T12:30:58.424Z,0.3
2023-02-19T12:32:08.068Z,0.3
2023-02-19T12:33:16.727Z,0.5
2023-02-19T12:34:25.445Z,0.4
2023-02-19T12:35:35.129Z,0.5
2023-02-19T12:36:42.793Z,0.7
2023-02-19T12:37:52.489Z,0.9
2023-02-19T12:39:01.195Z,0.5
2023-02-19T12:40:08.888Z,0.3
2023-02-19T12:41:18.579Z,0.3
2023-02-19T12:42:26.247Z,0.4
2023-02-19T12:43:34.938Z,0.3
2023-02-19T12:44:44.652Z,0.3
2023-02-19T12:45:52.453Z,0.4
2023-02-19T12:47:02.017Z,0.3
2023-02-19T12:48:10.684Z,0.4
2023-02-19T12:49:19.358Z,0.2
2023-02-19T12:50:29.063Z,0.4
2023-02-19T12:51:37.747Z,0.4
2023-02-19T12:52:46.457Z,0.5
2023-02-19T12:53:56.134Z,0.3
2023-02-19T12:55:05.847Z,0.4
2023-02-19T12:56:15.555Z,0.3
2023-02-19T12:57:25.292Z,0.3
2023-02-19T12:58:32.960Z,0.4
2023-02-19T12:59:42.651Z,0.4
2023-02-19T13:00:51.364Z,0.4
2023-02-19T13:02:01.209Z,0.5
2023-02-19T13:03:10.910Z,0.2
2023-02-19T13:04:19.576Z,0.4
2023-02-19T13:05:29.299Z,0.4
2023-02-19T13:06:37.961Z,0.3
2023-02-19T13:07:45.654Z,0.3
2023-02-19T13:09:07.275Z,0.4
2023-02-19T13:10:07.129Z,0.5
2023-02-19T13:11:16.016Z,0.8
2023-02-19T13:12:25.555Z,0.6
2023-02-19T13:13:34.274Z,0.6
2023-02-19T13:14:44.000Z,0.6
2023-02-19T13:15:52.700Z,0.5
2023-02-19T13:17:01.471Z,0.4
2023-02-19T13:18:11.058Z,0.6
2023-02-19T13:19:19.783Z,0.7
2023-02-19T13:20:28.477Z,0.5
2023-02-19T13:21:38.113Z,0.4
2023-02-19T13:22:46.782Z,0.6
2023-02-19T13:23:56.488Z,0.7
2023-02-19T13:25:05.247Z,0.5
2023-02-19T13:26:15.102Z,0.6
2023-02-19T13:27:24.589Z,0.5
2023-02-19T13:28:33.242Z,0.6
2023-02-19T13:29:41.963Z,0.4
2023-02-19T13:30:51.869Z,0.7
2023-02-19T13:32:01.451Z,0.7
2023-02-19T13:33:11.101Z,0.4
2023-02-19T13:34:20.804Z,0.2
2023-02-19T13:35:29.533Z,0.2
2023-02-19T13:36:39.199Z,0.4
2023-02-19T13:37:49.011Z,0.5
2023-02-19T13:38:57.726Z,0.5
2023-02-19T13:40:07.436Z,0.4
2023-02-19T13:41:17.120Z,0.4
2023-02-19T13:42:26.908Z,0.3
2023-02-19T13:43:35.565Z,0.3
2023-02-19T13:44:45.275Z,0.2
2023-02-19T13:45:55.081Z,0.3
2023-02-19T13:47:03.748Z,0.2
2023-02-19T13:48:13.416Z,0.4
2023-02-19T13:49:22.145Z,0.2
2023-02-19T13:50:30.838Z,0.4
2023-02-19T13:51:40.494Z,0.4
2023-02-19T13:52:48.206Z,0.4
2023-02-19T13:53:57.897Z,0.5
2023-02-19T13:55:07.703Z,0.5
2023-02-19T13:56:16.409Z,0.4
2023-02-19T13:57:26.106Z,0.5
2023-02-19T13:58:34.890Z,0.4
2023-02-19T13:59:44.597Z,0.4
2023-02-19T14:00:54.329Z,0.5
2023-02-19T14:02:03.045Z,0.5
2023-02-19T14:03:12.729Z,0.7
2023-02-19T14:04:21.455Z,0.8
2023-02-19T14:05:29.110Z,0.7
2023-02-19T14:06:38.804Z,0.6
2023-02-19T14:07:48.512Z,0.3
2023-02-19T14:08:57.178Z,0.6
2023-02-19T14:10:06.945Z,0.3
2023-02-19T14:11:15.636Z,0.4
2023-02-19T14:12:25.337Z,0.7
2023-02-19T14:13:33.997Z,0.6
2023-02-19T14:14:42.713Z,0.6
2023-02-19T14:15:52.581Z,0.5
2023-02-19T14:17:02.137Z,0.4
2023-02-19T14:18:11.864Z,0.5
2023-02-19T14:19:21.588Z,0.4
2023-02-19T14:20:30.354Z,0.4
2023-02-19T14:21:40.079Z,0.4
2023-02-19T14:22:48.774Z,0.6
2023-02-19T14:23:57.406Z,0.5
2023-02-19T14:25:07.218Z,0.8
2023-02-19T14:26:14.919Z,1
2023-02-19T14:27:23.621Z,1.2
2023-02-19T14:28:33.301Z,0.9
2023-02-19T14:29:43.008Z,0.7
2023-02-19T14:30:52.748Z,0.7
2023-02-19T14:32:01.479Z,0.6
2023-02-19T14:33:11.477Z,0.6
2023-02-19T14:34:20.952Z,0.5
2023-02-19T14:35:28.587Z,0.8
2023-02-19T14:36:37.328Z,0.8
2023-02-19T14:37:46.018Z,0.6
2023-02-19T14:38:54.723Z,0.5
2023-02-19T14:40:03.384Z,0.6
2023-02-19T14:41:13.358Z,0.5
2023-02-19T14:42:20.815Z,0.5
2023-02-19T14:43:30.487Z,0.4
2023-02-19T14:44:38.165Z,0.5
2023-02-19T14:45:46.883Z,0.6
2023-02-19T14:46:56.571Z,0.7
2023-02-19T14:48:04.237Z,0.5
2023-02-19T14:49:12.922Z,0.7
2023-02-19T14:50:21.596Z,0.7
2023-02-19T14:51:29.332Z,0.7
2023-02-19T14:52:39.118Z,0.7
2023-02-19T14:53:46.778Z,0.9
2023-02-19T14:54:55.504Z,0.9
2023-02-19T14:56:05.210Z,1.1
2023-02-19T14:57:12.902Z,1.1
2023-02-19T14:58:22.558Z,1.2
2023-02-19T14:59:31.250Z,1.1
2023-02-19T15:00:40.959Z,1.2
2023-02-19T15:01:50.692Z,1.2
2023-02-19T15:02:59.374Z,1.3
2023-02-19T15:04:08.049Z,1.1
2023-02-19T15:05:17.726Z,1
2023-02-19T15:06:26.512Z,1.2
2023-02-19T15:07:36.190Z,1.1
2023-02-19T15:08:44.867Z,0.8
2023-02-19T15:09:52.622Z,1.1
2023-02-19T15:11:02.349Z,0.9
2023-02-19T15:12:12.120Z,0.7
2023-02-19T15:13:20.799Z,1.2
2023-02-19T15:14:30.462Z,0.8
2023-02-19T15:15:39.185Z,0.9
2023-02-19T15:16:48.872Z,0.9
2023-02-19T15:17:58.564Z,1
2023-02-19T15:19:07.224Z,0.8
2023-02-19T15:20:16.924Z,0.7
2023-02-19T15:21:24.641Z,0.8
2023-02-19T15:22:33.324Z,1
2023-02-19T15:23:42.989Z,0.9
2023-02-19T15:24:52.698Z,0.8
2023-02-19T15:26:02.401Z,0.9
2023-02-19T15:27:11.135Z,0.9
2023-02-19T15:28:18.766Z,0.8
2023-02-19T15:29:28.501Z,1
2023-02-19T15:30:36.211Z,0.8
2023-02-19T15:31:44.956Z,1
2023-02-19T15:32:54.553Z,0.8
2023-02-19T15:34:02.243Z,1
2023-02-19T15:35:11.965Z,1
2023-02-19T15:36:21.655Z,1.1
2023-02-19T15:37:30.335Z,0.8
2023-02-19T15:38:39.072Z,0.9
2023-02-19T15:39:46.768Z,1.2
2023-02-19T15:40:56.461Z,1.1
2023-02-19T15:42:06.201Z,1
2023-02-19T15:43:13.918Z,1
2023-02-19T15:44:23.610Z,1.2
2023-02-19T15:45:33.285Z,1.2
2023-02-19T15:46:42.061Z,0.8
2023-02-19T15:47:51.705Z,0.7
2023-02-19T15:49:00.382Z,0.6
2023-02-19T15:50:09.089Z,0.8
2023-02-19T15:51:16.790Z,0.8
2023-02-19T15:52:25.547Z,1
2023-02-19T15:53:35.225Z,1.2
2023-02-19T15:54:42.880Z,1.2